Time;durP1;ratioP1;P1;durP2;ratioP2;P2;SDS_P1;SDS_P2;PMS_P1;PMS_P2;Temp;Humidity;BMP_temperature;BMP_pressure;BME280_temperature;BME280_humidity;BME280_pressure;Samples;Min_cycle;Max_cycle;Signal;HPM_P1;HPM_P2
2023/09/04 00:02:18;;;;;;;22.98;16.02;;;;;;;12.82;100.00;102645.81;7363945;19;20333;-35
2023/09/04 00:04:48;;;;;;;29.23;17.13;;;;;;;12.84;100.00;102646.78;7391139;19;20427;-35
2023/09/04 00:07:17;;;;;;;25.88;15.98;;;;;;;12.80;100.00;102643.09;7360954;19;20349;-37
2023/09/04 00:09:50;;;;;;;23.35;16.20;;;;;;;12.74;100.00;102645.31;7388713;19;20367;-36
2023/09/04 00:12:20;;;;;;;25.65;16.65;;;;;;;12.74;100.00;102641.81;7363856;19;20896;-35
2023/09/04 00:14:49;;;;;;;26.40;16.80;;;;;;;12.68;100.00;102637.16;7389002;19;20376;-34
2023/09/04 00:17:20;;;;;;;21.05;15.07;;;;;;;12.67;100.00;102635.38;7361872;19;20424;-34
2023/09/04 00:19:50;;;;;;;23.50;15.60;;;;;;;12.66;100.00;102628.38;7392429;19;20369;-35
2023/09/04 00:22:19;;;;;;;23.80;15.50;;;;;;;12.70;100.00;102630.38;7365580;19;20457;-35
2023/09/04 00:24:51;;;;;;;21.77;15.20;;;;;;;12.73;100.00;102630.56;7389875;19;20427;-35
2023/09/04 00:27:23;;;;;;;24.02;15.77;;;;;;;12.72;100.00;102636.53;7364690;19;20379;-34
2023/09/04 00:29:52;;;;;;;22.65;15.23;;;;;;;12.71;100.00;102637.31;7396151;19;20447;-35
2023/09/04 00:32:22;;;;;;;20.67;14.17;;;;;;;12.73;100.00;102642.63;7369648;19;20883;-35
2023/09/04 00:34:52;;;;;;;21.75;14.38;;;;;;;12.72;100.00;102640.81;7396584;19;20356;-35
2023/09/04 00:37:21;;;;;;;24.60;16.60;;;;;;;12.66;100.00;102641.31;7369859;19;20344;-35
2023/09/04 00:39:53;;;;;;;23.98;16.05;;;;;;;12.53;100.00;102643.16;7397137;19;20353;-34
2023/09/04 00:42:23;;;;;;;23.33;15.77;;;;;;;12.44;100.00;102645.13;7372869;19;20339;-36
2023/09/04 00:44:53;;;;;;;23.00;16.38;;;;;;;12.44;100.00;102647.72;7398727;19;20364;-35
2023/09/04 00:47:23;;;;;;;25.38;16.48;;;;;;;12.50;100.00;102652.38;7369453;19;20357;-36
2023/09/04 00:49:54;;;;;;;20.58;14.60;;;;;;;12.53;100.00;102658.69;7395930;19;20939;-35
2023/09/04 00:52:25;;;;;;;22.33;13.83;;;;;;;12.50;100.00;102647.22;7370416;19;20328;-35
2023/09/04 00:54:57;;;;;;;31.73;20.42;;;;;;;12.42;100.00;102633.81;7396903;19;20365;-35
2023/09/04 00:57:27;;;;;;;24.65;15.93;;;;;;;12.43;100.00;102644.22;7370172;19;20412;-36
2023/09/04 00:59:57;;;;;;;28.80;18.80;;;;;;;12.41;100.00;102652.72;7396181;19;20389;-41
2023/09/04 01:02:27;;;;;;;30.35;19.17;;;;;;;12.45;100.00;102654.69;7372231;19;20332;-35
2023/09/04 01:04:56;;;;;;;33.70;21.27;;;;;;;12.47;100.00;102660.88;7390303;19;20376;-47
2023/09/04 01:07:26;;;;;;;38.40;23.50;;;;;;;12.46;100.00;102658.19;7369732;19;20333;-46
2023/09/04 01:09:58;;;;;;;34.35;22.98;;;;;;;12.49;100.00;102658.38;7394771;19;20378;-49
2023/09/04 01:12:34;;;;;;;36.50;23.30;;;;;;;12.48;100.00;102660.09;7372994;19;20440;-48
2023/09/04 01:15:05;;;;;;;31.38;21.33;;;;;;;12.46;100.00;102672.00;7374179;19;20379;-50
2023/09/04 01:17:35;;;;;;;31.67;19.60;;;;;;;12.49;100.00;102666.13;7393883;19;20423;-46
2023/09/04 01:20:23;;;;;;;30.85;20.65;;;;;;;12.49;100.00;102667.06;7371319;19;20928;-48
2023/09/04 01:22:53;;;;;;;33.47;22.00;;;;;;;12.46;100.00;102660.78;7394071;19;20923;-46
2023/09/04 01:25:23;;;;;;;35.85;22.27;;;;;;;12.43;100.00;102658.88;7370898;19;20378;-47
2023/09/04 01:27:59;;;;;;;31.10;20.45;;;;;;;12.43;100.00;102664.06;7394974;19;20967;-47
2023/09/04 01:30:38;;;;;;;27.65;18.70;;;;;;;12.46;100.00;102664.25;7369483;19;20884;-49
2023/09/04 01:33:10;;;;;;;30.40;19.50;;;;;;;12.46;100.00;102664.25;7392043;19;20360;-48
2023/09/04 01:35:43;;;;;;;31.30;20.08;;;;;;;12.47;100.00;102658.31;7369331;19;20289;-46
2023/09/04 01:38:12;;;;;;;34.58;22.98;;;;;;;12.42;100.00;102654.50;7383625;19;20923;-49
2023/09/04 01:40:42;;;;;;;34.80;21.90;;;;;;;12.38;100.00;102652.50;7369582;19;20301;-53
2023/09/04 01:43:11;;;;;;;34.67;21.40;;;;;;;12.37;100.00;102661.06;7391980;19;20365;-47
2023/09/04 01:45:41;;;;;;;31.80;21.90;;;;;;;12.35;100.00;102667.84;7369358;19;20300;-45
2023/09/04 01:48:11;;;;;;;34.92;20.52;;;;;;;12.33;100.00;102659.97;7391596;19;20430;-48
2023/09/04 01:50:43;;;;;;;33.22;20.33;;;;;;;12.35;100.00;102665.28;7371389;19;20304;-47
2023/09/04 01:53:13;;;;;;;30.40;19.95;;;;;;;12.35;100.00;102670.44;7392131;19;20428;-46
2023/09/04 01:55:43;;;;;;;27.50;18.85;;;;;;;12.30;100.00;102664.94;7369424;19;20416;-48
2023/09/04 01:58:12;;;;;;;26.67;18.70;;;;;;;12.27;100.00;102665.63;7390442;19;20725;-48
2023/09/04 02:00:43;;;;;;;31.10;19.42;;;;;;;12.28;100.00;102662.28;7368880;19;20296;-52
2023/09/04 02:03:12;;;;;;;26.90;18.33;;;;;;;12.31;100.00;102663.28;7391746;19;20435;-49
2023/09/04 02:05:45;;;;;;;29.13;18.45;;;;;;;12.28;100.00;102651.03;7367689;19;20310;-49
2023/09/04 02:08:15;;;;;;;29.35;19.60;;;;;;;12.25;100.00;102651.72;7391189;19;20772;-49
2023/09/04 02:10:44;;;;;;;25.20;17.10;;;;;;;12.26;100.00;102648.31;7368883;19;20865;-48
2023/09/04 02:13:14;;;;;;;30.73;20.08;;;;;;;12.22;100.00;102646.34;7391271;19;20371;-46
2023/09/04 02:15:43;;;;;;;30.10;18.10;;;;;;;12.20;100.00;102647.94;7368699;19;20325;-50
2023/09/04 02:18:13;;;;;;;24.95;17.42;;;;;;;12.17;100.00;102644.25;7390331;19;20360;-46
2023/09/04 02:20:46;;;;;;;24.67;16.73;;;;;;;12.13;100.00;102635.38;7369758;19;20409;-49
2023/09/04 02:23:15;;;;;;;23.98;16.45;;;;;;;12.09;100.00;102644.63;7391259;19;20361;-44
2023/09/04 02:25:45;;;;;;;26.75;16.13;;;;;;;12.06;100.00;102640.97;7368381;19;20303;-46
2023/09/04 02:28:14;;;;;;;23.03;16.67;;;;;;;12.03;100.00;102639.03;7392594;19;20365;-44
2023/09/04 02:30:44;;;;;;;22.45;15.38;;;;;;;12.02;100.00;102642.41;7369624;19;20372;-45
2023/09/04 02:33:13;;;;;;;24.88;16.63;;;;;;;12.00;100.00;102644.91;7391221;19;20462;-46
2023/09/04 02:35:46;;;;;;;22.25;14.73;;;;;;;12.01;100.00;102644.09;7368243;19;20325;-46
2023/09/04 02:38:17;;;;;;;26.90;17.08;;;;;;;12.01;100.00;102645.81;7390832;19;20433;-50
2023/09/04 02:40:47;;;;;;;25.92;16.35;;;;;;;11.98;100.00;102636.16;7368660;19;20328;-46
2023/09/04 02:43:17;;;;;;;23.75;15.48;;;;;;;11.96;100.00;102635.16;7392814;19;20388;-46
2023/09/04 02:45:48;;;;;;;25.23;16.30;;;;;;;11.94;100.00;102639.31;7367807;19;20384;-48
2023/09/04 02:48:18;;;;;;;24.35;16.00;;;;;;;11.91;100.00;102639.13;7390171;19;20399;-46
2023/09/04 02:50:50;;;;;;;28.30;17.30;;;;;;;11.89;100.00;102644.19;7367154;19;20634;-47
2023/09/04 02:53:20;;;;;;;25.17;15.15;;;;;;;11.88;100.00;102636.31;7392375;19;20717;-45
2023/09/04 02:55:50;;;;;;;24.77;16.77;;;;;;;11.88;100.00;102636.31;7368217;19;20300;-45
2023/09/04 02:58:19;;;;;;;24.75;16.95;;;;;;;11.89;100.00;102635.53;7390033;19;20439;-46
2023/09/04 03:00:50;;;;;;;21.83;15.68;;;;;;;11.88;100.00;102634.66;7367351;19;20305;-46
2023/09/04 03:03:19;;;;;;;22.42;15.60;;;;;;;11.87;100.00;102631.94;7391409;19;20419;-45
2023/09/04 03:05:52;;;;;;;26.80;17.00;;;;;;;11.92;100.00;102635.75;7366753;19;20300;-51
2023/09/04 03:08:21;;;;;;;30.08;19.25;;;;;;;11.92;100.00;102642.59;7390799;19;20896;-47
2023/09/04 03:10:51;;;;;;;23.75;16.45;;;;;;;11.88;100.00;102642.41;7367243;19;20852;-47
2023/09/04 03:13:21;;;;;;;26.40;17.60;;;;;;;11.94;100.00;102641.03;7390287;19;20972;-50
2023/09/04 03:15:51;;;;;;;26.35;18.35;;;;;;;11.89;100.00;102640.69;7366615;19;20315;-46
2023/09/04 03:18:20;;;;;;;27.05;17.30;;;;;;;11.85;100.00;102638.72;7391288;19;20381;-45
2023/09/04 03:20:54;;;;;;;24.75;17.17;;;;;;;11.86;100.00;102640.50;7368111;19;20309;-47
2023/09/04 03:23:24;;;;;;;33.88;19.30;;;;;;;12.03;100.00;102641.63;7391723;19;20427;-49
2023/09/04 03:25:54;;;;;;;30.73;18.80;;;;;;;11.92;100.00;102642.59;7367334;19;20301;-51
2023/09/04 03:28:23;;;;;;;30.85;19.20;;;;;;;11.90;100.00;102645.09;7389496;19;20353;-48
2023/09/04 03:30:53;;;;;;;133.15;72.00;;;;;;;12.15;100.00;102638.97;7367043;19;20313;-49
2023/09/04 03:33:23;;;;;;;79.18;43.45;;;;;;;12.27;100.00;102639.75;7389152;19;20356;-48
2023/09/04 03:35:55;;;;;;;60.80;35.47;;;;;;;12.34;100.00;102629.81;7367387;19;20308;-45
2023/09/04 03:38:25;;;;;;;49.43;30.23;;;;;;;12.44;100.00;102616.66;7389299;19;20389;-47
2023/09/04 03:40:55;;;;;;;35.90;21.73;;;;;;;12.45;100.00;102609.81;7366243;19;20342;-47
2023/09/04 03:43:24;;;;;;;46.20;27.58;;;;;;;12.42;100.00;102607.91;7389699;19;20364;-45
2023/09/04 03:45:54;;;;;;;31.20;19.70;;;;;;;12.33;100.00;102616.00;7366215;19;20348;-53
2023/09/04 03:48:24;;;;;;;32.60;19.30;;;;;;;12.22;100.00;102615.31;7389309;19;20436;-46
2023/09/04 03:51:00;;;;;;;32.42;20.40;;;;;;;12.07;100.00;102630.72;7366285;19;20336;-49
2023/09/04 03:53:30;;;;;;;35.55;21.33;;;;;;;12.18;100.00;102646.94;7389449;19;20775;-46
2023/09/04 03:56:05;;;;;;;33.80;21.08;;;;;;;12.18;100.00;102653.78;7365725;19;20307;-46
2023/09/04 03:58:34;;;;;;;33.47;20.67;;;;;;;12.04;100.00;102660.66;7389309;19;20440;-48
2023/09/04 04:01:05;;;;;;;31.88;20.77;;;;;;;11.97;100.00;102662.81;7366452;19;20345;-51
2023/09/04 04:03:35;;;;;;;23.10;16.27;;;;;;;11.99;100.00;102657.72;7399014;19;20358;-45
2023/09/04 04:06:14;;;;;;;19.15;13.85;;;;;;;11.90;100.00;102652.88;7372762;19;20352;-45
2023/09/04 04:08:45;;;;;;;23.48;14.65;;;;;;;12.02;100.00;102651.06;7395761;19;20372;-46
2023/09/04 04:11:15;;;;;;;19.10;12.50;;;;;;;12.03;100.00;102657.13;7371264;19;20420;-50
2023/09/04 04:13:45;;;;;;;21.60;13.55;;;;;;;12.03;100.00;102654.56;7395670;19;20715;-46
2023/09/04 04:16:15;;;;;;;27.15;16.60;;;;;;;12.17;100.00;102662.34;7372136;19;20416;-49
2023/09/04 04:18:44;;;;;;;20.55;12.93;;;;;;;12.14;100.00;102674.31;7395253;19;20372;-48
2023/09/04 04:21:16;;;;;;;21.40;13.20;;;;;;;12.11;100.00;102670.63;7371126;19;20332;-48
2023/09/04 04:23:46;;;;;;;27.87;17.73;;;;;;;12.13;100.00;102689.72;7395923;19;20435;-46
2023/09/04 04:26:16;;;;;;;36.22;22.02;;;;;;;11.98;100.00;102702.50;7370775;19;20435;-47
2023/09/04 04:28:45;;;;;;;31.67;19.40;;;;;;;11.89;100.00;102714.03;7395641;19;20387;-49
2023/09/04 04:31:15;;;;;;;33.25;20.65;;;;;;;11.94;100.00;102716.91;7370037;19;20329;-50
2023/09/04 04:33:44;;;;;;;28.98;17.60;;;;;;;11.96;100.00;102715.34;7396873;19;20385;-51
2023/09/04 04:36:16;;;;;;;28.50;18.92;;;;;;;11.94;100.00;102706.56;7370433;19;20320;-46
2023/09/04 04:38:46;;;;;;;35.88;22.08;;;;;;;11.91;100.00;102719.31;7395191;19;20352;-48
2023/09/04 04:41:16;;;;;;;39.23;22.90;;;;;;;11.90;100.00;102717.53;7369808;19;20420;-46
2023/09/04 04:43:45;;;;;;;38.67;23.02;;;;;;;11.90;100.00;102730.47;7395443;19;20364;-45
2023/09/04 04:46:17;;;;;;;31.42;21.70;;;;;;;11.87;100.00;102730.22;7371519;19;20692;-45
2023/09/04 04:48:46;;;;;;;38.67;22.48;;;;;;;11.92;100.00;102734.03;7394316;19;21200;-48
2023/09/04 04:51:18;;;;;;;28.25;17.63;;;;;;;11.84;100.00;102724.88;7371442;19;20648;-47
2023/09/04 04:53:48;;;;;;;19.33;13.52;;;;;;;11.77;100.00;102702.84;7394664;19;20357;-48
2023/09/04 04:56:18;;;;;;;19.55;13.40;;;;;;;11.83;100.00;102692.00;7370321;19;20329;-49
2023/09/04 04:58:47;;;;;;;21.92;13.50;;;;;;;11.99;100.00;102683.59;7394135;19;20373;-50
2023/09/04 05:01:17;;;;;;;19.15;11.15;;;;;;;11.97;100.00;102680.00;7369351;19;20909;-46
2023/09/04 05:03:46;;;;;;;20.90;13.00;;;;;;;12.02;100.00;102676.06;7393994;19;20707;-46
2023/09/04 05:06:18;;;;;;;143.02;89.38;;;;;;;12.20;100.00;102678.09;7370953;19;20343;-49
2023/09/04 05:08:48;;;;;;;25.60;17.10;;;;;;;12.07;100.00;102678.97;7394595;19;20361;-48
2023/09/04 05:11:18;;;;;;;31.20;20.50;;;;;;;12.16;100.00;102682.19;7369851;19;20325;-47
2023/09/04 05:13:47;;;;;;;32.78;20.20;;;;;;;12.50;100.00;102694.72;7392852;19;20356;-49
2023/09/04 05:16:17;;;;;;;28.33;19.23;;;;;;;12.38;100.00;102709.47;7369413;19;20419;-45
2023/09/04 05:18:47;;;;;;;25.70;16.73;;;;;;;12.67;100.00;102731.19;7394127;19;20373;-47
2023/09/04 05:21:20;;;;;;;20.70;13.30;;;;;;;12.54;100.00;102747.59;7369254;19;20325;-48
2023/09/04 05:23:50;;;;;;;19.45;14.15;;;;;;;12.46;100.00;102770.38;7394444;19;20427;-47
2023/09/04 05:26:19;;;;;;;26.48;16.23;;;;;;;12.38;100.00;102782.84;7369092;19;20347;-49
2023/09/04 05:28:49;;;;;;;180.93;117.47;;;;;;;12.36;100.00;102789.59;7393535;19;20503;-46
2023/09/04 05:31:19;;;;;;;29.38;20.05;;;;;;;12.33;100.00;102793.66;7369345;19;20395;-45
2023/09/04 05:33:48;;;;;;;33.30;22.13;;;;;;;12.33;100.00;102798.84;7392317;19;20884;-46
2023/09/04 05:36:20;;;;;;;33.53;22.30;;;;;;;12.23;100.00;102803.41;7365016;19;20935;-50
2023/09/04 05:38:50;;;;;;;38.70;25.85;;;;;;;12.31;100.00;102801.31;7393087;19;20439;-46
2023/09/04 05:41:20;;;;;;;27.67;18.05;;;;;;;12.41;100.00;102797.69;7369453;19;20438;-47
2023/09/04 05:43:49;;;;;;;29.52;18.83;;;;;;;12.46;100.00;102795.41;7392949;19;20371;-46
2023/09/04 05:46:19;;;;;;;30.92;20.90;;;;;;;12.45;100.00;102796.19;7368250;19;20447;-47
2023/09/04 05:48:48;;;;;;;31.95;20.88;;;;;;;12.40;100.00;102794.19;7391890;19;20344;-49
2023/09/04 05:51:21;;;;;;;36.58;23.50;;;;;;;12.36;100.00;102789.59;7369129;19;20331;-51
2023/09/04 05:53:50;;;;;;;28.48;19.15;;;;;;;12.34;100.00;102792.88;7393340;19;20360;-50
2023/09/04 05:56:20;;;;;;;30.67;19.37;;;;;;;12.31;100.00;102779.75;7367851;19;20337;-51
2023/09/04 05:58:51;;;;;;;30.77;19.27;;;;;;;12.31;100.00;102774.56;7392139;19;20936;-49
2023/09/04 06:01:23;;;;;;;28.10;19.20;;;;;;;12.33;100.00;102765.19;7368005;19;20328;-47
2023/09/04 06:03:54;;;;;;;34.50;23.10;;;;;;;12.38;100.00;102750.88;7394967;19;20357;-48
2023/09/04 06:06:26;;;;;;;32.88;21.75;;;;;;;12.46;100.00;102751.38;7368709;19;20325;-51
2023/09/04 06:08:56;;;;;;;29.33;19.27;;;;;;;12.50;100.00;102746.50;7393304;19;20429;-47
2023/09/04 06:11:25;;;;;;;26.88;19.50;;;;;;;12.54;100.00;102742.41;7368377;19;20321;-45
2023/09/04 06:13:55;;;;;;;31.42;21.63;;;;;;;12.61;100.00;102741.16;7392309;19;20924;-50
2023/09/04 06:16:25;;;;;;;31.08;20.80;;;;;;;12.66;100.00;102735.44;7368668;19;20420;-52
2023/09/04 06:18:54;;;;;;;38.63;22.70;;;;;;;12.77;100.00;102730.09;7392709;19;20389;-49
2023/09/04 06:21:26;;;;;;;41.80;23.42;;;;;;;12.89;100.00;102719.59;7368670;19;20431;-46
2023/09/04 06:23:56;;;;;;;27.83;19.60;;;;;;;12.92;100.00;102722.41;7392890;19;20440;-47
2023/09/04 06:26:26;;;;;;;27.17;18.77;;;;;;;12.99;100.00;102715.88;7367587;19;20323;-47
2023/09/04 06:28:55;;;;;;;30.88;19.25;;;;;;;13.10;100.00;102720.97;7392397;19;20373;-48
2023/09/04 06:31:25;;;;;;;33.63;20.15;;;;;;;13.22;100.00;102720.81;7367751;19;20325;-50
2023/09/04 06:33:55;;;;;;;27.17;18.48;;;;;;;13.27;100.00;102728.88;7394136;19;21002;-47
2023/09/04 06:36:27;;;;;;;33.50;20.53;;;;;;;13.40;100.00;102724.44;7367141;19;20349;-52
2023/09/04 06:38:57;;;;;;;30.38;19.90;;;;;;;13.45;100.00;102718.78;7391642;19;20758;-46
2023/09/04 06:41:26;;;;;;;29.50;19.75;;;;;;;13.54;100.00;102721.03;7368125;19;20348;-52
2023/09/04 06:43:56;;;;;;;27.67;17.83;;;;;;;13.58;100.00;102715.25;7392307;19;20344;-48
2023/09/04 06:46:26;;;;;;;23.50;16.87;;;;;;;13.66;100.00;102718.31;7367285;19;20651;-45
2023/09/04 06:48:55;;;;;;;24.60;17.58;;;;;;;13.73;100.00;102714.38;7391380;19;20371;-48
2023/09/04 06:51:28;;;;;;;23.70;16.38;;;;;;;13.84;100.00;102710.72;7366581;19;20408;-47
2023/09/04 06:53:58;;;;;;;27.25;17.88;;;;;;;13.92;100.00;102711.19;7391814;19;20360;-47
2023/09/04 06:56:28;;;;;;;22.10;15.27;;;;;;;14.00;100.00;102709.03;7366702;19;20323;-47
2023/09/04 06:58:58;;;;;;;40.92;23.63;;;;;;;14.09;100.00;102708.69;7391654;19;20372;-53
2023/09/04 07:01:27;;;;;;;23.02;15.88;;;;;;;14.14;100.00;102709.81;7367515;19;20324;-46
2023/09/04 07:03:57;;;;;;;21.50;14.32;;;;;;;14.35;100.00;102710.19;7390461;19;20353;-40
2023/09/04 07:06:29;;;;;;;42.03;22.02;;;;;;;14.49;100.00;102718.75;7366603;19;20874;-40
2023/09/04 07:08:59;;;;;;;40.00;22.30;;;;;;;14.63;100.00;102732.53;7393532;19;20994;-42
2023/09/04 07:11:28;;;;;;;17.15;11.27;;;;;;;14.73;100.00;102746.94;7365383;19;20337;-54
2023/09/04 07:13:58;;;;;;;20.90;12.33;;;;;;;14.71;100.00;102765.03;7392861;19;20374;-53
2023/09/04 07:16:28;;;;;;;16.80;11.00;;;;;;;14.80;100.00;102776.78;7365966;19;20403;-48
2023/09/04 07:19:10;;;;;;;15.80;11.27;;;;;;;14.87;100.00;102797.09;7392005;19;20903;-51
2023/09/04 07:21:42;;;;;;;15.55;11.10;;;;;;;14.98;100.00;102810.72;7366662;19;20856;-53
2023/09/04 07:24:12;;;;;;;14.30;10.17;;;;;;;15.08;100.00;102832.94;7389652;19;20424;-47
2023/09/04 07:26:42;;;;;;;17.23;10.57;;;;;;;15.21;100.00;102840.59;7364597;19;20329;-49
2023/09/04 07:29:11;;;;;;;13.35;9.32;;;;;;;15.24;100.00;102865.88;7389793;19;20360;-55
2023/09/04 07:31:41;;;;;;;14.40;9.48;;;;;;;15.36;100.00;102870.88;7365544;19;20738;-50
2023/09/04 07:34:11;;;;;;;15.65;9.60;;;;;;;15.51;100.00;102879.53;7389899;19;20723;-52
2023/09/04 07:36:43;;;;;;;14.90;10.07;;;;;;;15.58;100.00;102882.47;7363575;19;20320;-50
2023/09/04 07:39:12;;;;;;;14.37;9.40;;;;;;;15.67;100.00;102888.16;7390102;19;20356;-52
2023/09/04 07:41:42;;;;;;;18.88;12.23;;;;;;;15.63;100.00;102887.09;7365892;19;20353;-52
2023/09/04 07:44:11;;;;;;;17.07;11.10;;;;;;;15.80;100.00;102901.03;7389395;19;20982;-54
2023/09/04 07:46:42;;;;;;;13.88;9.00;;;;;;;15.88;100.00;102904.06;7365320;19;20925;-50
2023/09/04 07:49:12;;;;;;;13.32;9.20;;;;;;;15.97;100.00;102908.00;7389376;19;20379;-54
2023/09/04 07:51:45;;;;;;;12.48;8.07;;;;;;;16.01;100.00;102913.44;7365359;19;20349;-52
2023/09/04 07:54:14;;;;;;;12.95;8.20;;;;;;;16.09;100.00;102912.97;7382810;19;20340;-52
2023/09/04 07:56:44;;;;;;;13.57;8.57;;;;;;;16.20;100.00;102917.03;7364486;19;20392;-52
2023/09/04 07:59:13;;;;;;;13.57;7.80;;;;;;;16.38;100.00;102926.63;7390369;19;20380;-53
2023/09/04 08:01:43;;;;;;;9.93;7.10;;;;;;;16.38;100.00;102921.41;7363697;19;20389;-50
2023/09/04 08:04:12;;;;;;;11.07;6.10;;;;;;;16.52;100.00;102937.78;7388034;19;20944;-54
2023/09/04 08:06:45;;;;;;;12.00;6.53;;;;;;;16.62;100.00;102936.53;7364792;19;20373;-51
2023/09/04 08:09:16;;;;;;;8.93;5.10;;;;;;;16.79;100.00;102945.22;7388932;19;20360;-51
2023/09/04 08:11:45;;;;;;;12.05;6.03;;;;;;;16.80;100.00;102954.81;7365862;19;20412;-50
2023/09/04 08:14:15;;;;;;;14.05;7.88;;;;;;;16.87;100.00;102954.34;7388110;19;21071;-49
2023/09/04 08:16:44;;;;;;;10.82;6.30;;;;;;;16.94;100.00;102966.84;7363246;19;20340;-51
2023/09/04 08:19:14;;;;;;;14.65;6.60;;;;;;;17.04;100.00;102973.47;7388606;19;20809;-51
2023/09/04 08:21:46;;;;;;;20.90;10.93;;;;;;;17.13;100.00;102979.13;7365041;19;20783;-46
2023/09/04 08:24:16;;;;;;;8.93;4.90;;;;;;;17.24;100.00;102992.69;7388338;19;20353;-48
2023/09/04 08:26:45;;;;;;;16.50;6.30;;;;;;;17.33;100.00;103007.91;7364015;19;20752;-49
2023/09/04 08:29:15;;;;;;;26.40;13.77;;;;;;;17.34;100.00;103014.91;7388126;19;20372;-53
2023/09/04 08:31:44;;;;;;;17.02;9.77;;;;;;;17.47;100.00;103021.66;7364039;19;20393;-53
2023/09/04 08:34:14;;;;;;;36.33;18.40;;;;;;;17.50;100.00;103031.34;7387919;19;20352;-48
2023/09/04 08:36:46;;;;;;;16.83;8.93;;;;;;;17.61;100.00;103053.66;7362709;19;20366;-53
2023/09/04 08:39:16;;;;;;;14.63;7.05;;;;;;;17.64;100.00;103063.34;7387561;19;20904;-50
2023/09/04 08:41:46;;;;;;;23.27;12.90;;;;;;;17.75;100.00;103075.19;7365597;19;20366;-49
2023/09/04 08:44:16;;;;;;;7.95;4.65;;;;;;;17.85;100.00;103075.66;7389279;19;20352;-47
2023/09/04 08:46:50;;;;;;;11.03;5.50;;;;;;;17.98;100.00;103101.53;7363008;19;20369;-52
2023/09/04 08:49:20;;;;;;;19.38;9.10;;;;;;;18.05;100.00;103105.34;7392775;19;20367;-48
2023/09/04 08:51:53;;;;;;;7.78;4.40;;;;;;;18.09;100.00;103112.50;7371638;19;20332;-48
2023/09/04 08:54:24;;;;;;;12.03;6.23;;;;;;;18.18;100.00;103114.69;7393753;19;20348;-52
2023/09/04 08:56:54;;;;;;;11.57;5.13;;;;;;;18.22;100.00;103114.00;7368209;19;20357;-48
2023/09/04 08:59:24;;;;;;;22.80;11.00;;;;;;;18.22;100.00;103114.88;7394796;19;20377;-50
2023/09/04 09:01:55;;;;;;;13.52;7.03;;;;;;;18.23;100.00;103113.19;7370019;19;20345;-52
2023/09/04 09:04:25;;;;;;;19.02;10.02;;;;;;;18.47;100.00;103104.72;7393646;19;20702;-50
2023/09/04 09:06:57;;;;;;;13.40;6.70;;;;;;;18.58;100.00;103113.03;7369867;19;20331;-50
2023/09/04 09:09:27;;;;;;;9.02;4.60;;;;;;;18.68;100.00;103107.41;7394124;19;20381;-49
2023/09/04 09:11:56;;;;;;;7.80;4.05;;;;;;;18.70;100.00;103100.53;7369825;19;20342;-50
2023/09/04 09:14:29;;;;;;;33.10;16.83;;;;;;;18.63;100.00;103090.63;7393993;19;20343;-53
2023/09/04 09:17:04;;;;;;;9.60;3.90;;;;;;;18.86;100.00;103085.50;7367640;19;20337;-49
2023/09/04 09:19:34;;;;;;;10.73;5.40;;;;;;;19.09;100.00;103094.44;7394117;19;20884;-48
2023/09/04 09:22:14;;;;;;;24.10;12.27;;;;;;;18.89;100.00;103077.81;7369789;19;20435;-48
2023/09/04 09:24:54;;;;;;;13.00;6.70;;;;;;;19.06;100.00;103065.50;7393654;19;20356;-52
2023/09/04 09:27:25;;;;;;;15.75;6.63;;;;;;;19.03;100.00;102990.41;7370698;19;20333;-51
2023/09/04 09:29:57;;;;;;;10.43;5.17;;;;;;;19.02;100.00;102917.06;7396726;19;20352;-48
2023/09/04 09:32:30;;;;;;;5.27;2.40;;;;;;;19.24;100.00;102865.66;7369225;19;20325;-52
2023/09/04 09:35:00;;;;;;;8.55;4.60;;;;;;;19.45;100.00;102828.94;7394535;19;20385;-49
2023/09/04 09:37:33;;;;;;;8.00;3.03;;;;;;;19.53;100.00;102745.47;7370556;19;20353;-51
2023/09/04 09:40:02;;;;;;;42.25;20.35;;;;;;;19.49;100.00;102707.81;7387145;19;20357;-50
2023/09/04 09:42:33;;;;;;;19.05;10.20;;;;;;;19.63;100.00;102728.38;7395927;19;20402;-50
2023/09/04 09:45:03;;;;;;;19.65;9.02;;;;;;;19.39;100.00;102656.84;7382264;19;20960;-52
2023/09/04 09:47:34;;;;;;;15.27;4.93;;;;;;;19.73;100.00;102677.22;7393818;19;20833;-50
2023/09/04 09:50:06;;;;;;;9.05;4.50;;;;;;;19.66;100.00;102597.56;7371470;19;20710;-50
2023/09/04 09:52:38;;;;;;;6.18;2.58;;;;;;;19.70;100.00;102570.66;7394060;19;20376;-48
2023/09/04 09:55:08;;;;;;;7.68;3.47;;;;;;;19.70;100.00;102565.41;7370499;19;20372;-54
2023/09/04 09:57:38;;;;;;;19.38;6.47;;;;;;;19.89;100.00;102594.81;7390203;19;20364;-54
2023/09/04 10:00:09;;;;;;;31.27;16.37;;;;;;;19.92;100.00;102616.75;7365941;19;21177;-51
2023/09/04 10:02:39;;;;;;;14.15;7.00;;;;;;;19.94;100.00;102505.06;7385397;19;20357;-50
2023/09/04 10:05:10;;;;;;;6.13;2.40;;;;;;;20.14;100.00;102482.97;7363503;19;20363;-52
2023/09/04 10:07:42;;;;;;;51.53;29.00;;;;;;;20.33;100.00;102451.19;7386548;19;20360;-49
2023/09/04 10:10:12;;;;;;;19.70;9.05;;;;;;;20.14;100.00;102427.94;7367809;19;20368;-51
2023/09/04 10:12:44;;;;;;;6.40;2.00;;;;;;;20.25;100.00;102444.84;7389129;19;20389;-50
2023/09/04 10:18:02;;;;;;;30.13;14.80;;;;;;;20.25;100.00;102400.28;7388588;19;20353;-53
2023/09/04 10:20:32;;;;;;;7.43;3.33;;;;;;;20.36;100.00;102406.72;7366579;19;20301;-54
2023/09/04 10:23:09;;;;;;;6.40;2.30;;;;;;;20.54;100.00;102404.53;7392055;19;20364;-53
2023/09/04 10:25:45;;;;;;;8.15;3.58;;;;;;;20.43;100.00;102399.03;7366777;19;20285;-51
2023/09/04 10:28:20;;;;;;;6.82;3.17;;;;;;;20.55;100.00;102396.72;7390371;19;20824;-49
2023/09/04 10:31:10;;;;;;;6.35;2.72;;;;;;;20.91;100.00;102393.31;7367096;19;20328;-51
2023/09/04 10:33:40;;;;;;;10.32;3.60;;;;;;;20.73;100.00;102408.53;7390770;19;20365;-49
2023/09/04 10:36:10;;;;;;;7.60;2.88;;;;;;;20.98;100.00;102420.56;7366385;19;20436;-52
2023/09/04 10:38:42;;;;;;;5.57;2.80;;;;;;;21.30;100.00;102409.97;7390341;19;20365;-53
2023/09/04 10:41:14;;;;;;;5.68;2.58;;;;;;;21.25;100.00;102424.72;7364470;19;20325;-50
2023/09/04 10:43:44;;;;;;;7.38;2.25;;;;;;;21.14;100.00;102437.59;7392678;19;20374;-53
2023/09/04 10:46:15;;;;;;;7.30;2.88;;;;;;;21.42;100.00;102443.50;7363944;19;20337;-53
2023/09/04 10:48:45;;;;;;;5.38;1.85;;;;;;;21.63;100.00;102439.56;7389996;19;20365;-52
2023/09/04 10:51:30;;;;;;;7.88;3.70;;;;;;;21.50;100.00;102438.41;7365853;19;20975;-52
2023/09/04 10:54:05;;;;;;;9.15;4.15;;;;;;;21.38;100.00;102465.25;7389528;19;20360;-53
2023/09/04 10:56:55;;;;;;;9.63;2.93;;;;;;;21.35;100.00;102478.31;7365391;19;20881;-51
2023/09/04 10:59:25;;;;;;;6.68;2.00;;;;;;;21.45;100.00;102489.94;7389802;19;20779;-52
2023/09/04 11:01:55;;;;;;;9.45;3.75;;;;;;;21.07;100.00;102539.72;7365190;19;20331;-50
2023/09/04 11:04:33;;;;;;;8.85;4.20;;;;;;;21.04;100.00;102549.28;7389538;19;20364;-51
2023/09/04 11:07:27;;;;;;;9.07;3.47;;;;;;;21.12;100.00;102559.09;7365395;19;20332;-51
2023/09/04 11:10:04;;;;;;;8.20;2.80;;;;;;;21.39;100.00;102566.78;7390182;19;20356;-52
2023/09/04 11:12:35;;;;;;;7.40;3.70;;;;;;;21.37;100.00;102593.88;7369079;19;20337;-50
2023/09/04 11:15:13;;;;;;;7.97;2.60;;;;;;;21.40;100.00;102592.22;7368331;19;20364;-48
2023/09/04 11:17:46;;;;;;;10.60;4.88;;;;;;;21.28;100.00;102605.00;7389323;19;20373;-50
2023/09/04 11:20:17;;;;;;;10.60;5.20;;;;;;;21.30;100.00;102611.19;7366577;19;20758;-48
2023/09/04 11:22:48;;;;;;;17.38;8.38;;;;;;;21.39;100.00;102615.78;7389181;19;20348;-52
2023/09/04 11:25:20;;;;;;;5.03;1.90;;;;;;;21.70;100.00;102603.47;7366016;19;20368;-54